createdAt,value
2023-02-16T00:00:27.659Z,-5.28
2023-02-16T00:02:59.575Z,-5.32
2023-02-16T00:05:29.156Z,-5.32
2023-02-16T00:07:58.702Z,-5.34
2023-02-16T00:10:30.634Z,-5.43
2023-02-16T00:13:17.771Z,-5.39
2023-02-16T00:15:48.486Z,-5.42
2023-02-16T00:18:20.771Z,-5.48
2023-02-16T00:20:49.996Z,-5.49
2023-02-16T00:23:20.934Z,-5.44
2023-02-16T00:25:48.745Z,-5.41
2023-02-16T00:28:21.473Z,-5.56
2023-02-16T00:30:51.038Z,-5.41
2023-02-16T00:33:21.634Z,-5.42
2023-02-16T00:35:50.251Z,-5.43
2023-02-16T00:38:18.147Z,-5.47
2023-02-16T00:40:45.983Z,-5.15
2023-02-16T00:43:27.742Z,-5.34
2023-02-16T00:45:56.730Z,-5.58
2023-02-16T00:48:26.088Z,-5.30
2023-02-16T00:50:54.431Z,-5.50
2023-02-16T00:53:22.138Z,-5.39
2023-02-16T00:55:50.496Z,-5.45
2023-02-16T00:58:31.214Z,-5.55
2023-02-16T01:01:06.991Z,-5.49
2023-02-16T01:03:34.908Z,-5.55
2023-02-16T01:06:24.537Z,-5.56
2023-02-16T01:09:13.964Z,-5.45
2023-02-16T01:11:42.048Z,-5.61
2023-02-16T01:14:13.484Z,-5.55
2023-02-16T01:16:42.831Z,-5.65
2023-02-16T01:19:12.916Z,-5.53
2023-02-16T01:21:41.419Z,-5.59
2023-02-16T01:24:09.277Z,-5.63
2023-02-16T01:26:48.369Z,-5.70
2023-02-16T01:29:18.724Z,-5.73
2023-02-16T01:31:50.214Z,-5.73
2023-02-16T01:34:21.036Z,-5.61
2023-02-16T01:36:49.536Z,-5.58
2023-02-16T01:39:20.074Z,-5.53
2023-02-16T01:42:32.606Z,-5.54
2023-02-16T01:45:05.634Z,-5.56
2023-02-16T01:47:49.828Z,-5.69
2023-02-16T01:50:22.592Z,-5.42
2023-02-16T01:53:02.260Z,-5.55
2023-02-16T01:55:37.424Z,-5.72
2023-02-16T01:58:18.167Z,-5.68
2023-02-16T02:00:52.421Z,-5.57
2023-02-16T02:03:43.584Z,-5.70
2023-02-16T02:06:22.977Z,-5.48
2023-02-16T02:09:03.234Z,-5.44
2023-02-16T02:11:40.061Z,-5.56
2023-02-16T02:14:23.039Z,-5.72
2023-02-16T02:16:57.282Z,-5.48
2023-02-16T02:19:26.192Z,-5.56
2023-02-16T02:22:24.696Z,-5.61
2023-02-16T02:25:05.440Z,-5.41
2023-02-16T02:27:57.149Z,-5.58
2023-02-16T02:31:01.177Z,-5.43
2023-02-16T02:34:01.919Z,-5.58
2023-02-16T02:36:51.735Z,-5.52
2023-02-16T02:39:38.794Z,-5.55
2023-02-16T02:42:37.658Z,-5.56
2023-02-16T02:45:14.568Z,-5.41
2023-02-16T02:47:46.277Z,-5.64
2023-02-16T02:50:39.664Z,-5.48
2023-02-16T02:53:13.263Z,-5.37
2023-02-16T02:56:07.041Z,-5.45
2023-02-16T02:58:56.182Z,-5.55
2023-02-16T03:01:25.729Z,-5.59
2023-02-16T03:03:57.928Z,-5.72
2023-02-16T03:06:38.937Z,-5.69
2023-02-16T03:09:14.587Z,-5.63
2023-02-16T03:12:06.321Z,-5.50
2023-02-16T03:14:40.234Z,-5.50
2023-02-16T03:17:34.543Z,-5.49
2023-02-16T03:20:25.266Z,-5.68
2023-02-16T03:23:11.847Z,-5.62
2023-02-16T03:25:59.816Z,-5.68
2023-02-16T03:28:50.873Z,-5.75
2023-02-16T03:31:25.621Z,-5.86
2023-02-16T03:33:56.740Z,-5.91
2023-02-16T03:36:31.985Z,-5.79
2023-02-16T03:39:00.776Z,-5.91
2023-02-16T03:41:34.593Z,-5.85
2023-02-16T03:44:02.429Z,-5.88
2023-02-16T03:46:31.947Z,-5.96
2023-02-16T03:48:59.785Z,-5.98
2023-02-16T03:51:27.555Z,-5.82
2023-02-16T03:53:55.852Z,-5.99
2023-02-16T03:56:23.788Z,-6.01
2023-02-16T03:58:51.665Z,-6.02
2023-02-16T04:01:19.837Z,-5.98
2023-02-16T04:03:48.322Z,-5.96
2023-02-16T04:06:16.361Z,-6.04
2023-02-16T04:08:44.204Z,-5.99
2023-02-16T04:11:33.822Z,-6.02
2023-02-16T04:14:01.732Z,-5.92
2023-02-16T04:16:29.997Z,-6.19
2023-02-16T04:18:57.903Z,-6.05
2023-02-16T04:21:25.811Z,-5.81
2023-02-16T04:23:53.992Z,-5.81
2023-02-16T04:26:21.962Z,-5.83
2023-02-16T04:28:49.697Z,-5.86
2023-02-16T04:31:18.013Z,-5.71
2023-02-16T04:33:48.960Z,-5.75
2023-02-16T04:36:17.169Z,-5.70
2023-02-16T04:38:44.917Z,-5.49
2023-02-16T04:41:12.789Z,-5.62
2023-02-16T04:43:40.834Z,-5.66
2023-02-16T04:46:08.722Z,-5.58
2023-02-16T04:48:39.728Z,-5.71
2023-02-16T04:51:07.976Z,-5.64
2023-02-16T04:53:35.849Z,-5.41
2023-02-16T04:56:03.874Z,-5.74
2023-02-16T04:58:32.076Z,-5.47
2023-02-16T05:00:59.915Z,-5.28
2023-02-16T05:03:27.673Z,-5.33
2023-02-16T05:05:55.909Z,-5.26
2023-02-16T05:08:23.957Z,-5.41
2023-02-16T05:11:11.784Z,-5.49
2023-02-16T05:13:58.510Z,-5.52
2023-02-16T05:16:26.581Z,-5.39
2023-02-16T05:18:56.863Z,-5.39
2023-02-16T05:21:32.579Z,-5.66
2023-02-16T05:24:03.874Z,-5.48
2023-02-16T05:26:32.524Z,-5.41
2023-02-16T05:29:01.333Z,-5.63
2023-02-16T05:31:30.036Z,-5.41
2023-02-16T05:33:58.081Z,-5.58
2023-02-16T05:36:26.395Z,-5.49
2023-02-16T05:38:54.280Z,-5.43
2023-02-16T05:41:25.452Z,-5.41
2023-02-16T05:44:00.022Z,-5.30
2023-02-16T05:46:29.980Z,-5.47
2023-02-16T05:48:58.306Z,-5.50
2023-02-16T05:51:27.049Z,-5.29
2023-02-16T05:53:55.080Z,-5.34
2023-02-16T05:56:23.526Z,-5.39
2023-02-16T05:58:51.593Z,-5.19
2023-02-16T06:01:22.845Z,-5.19
2023-02-16T06:03:52.230Z,-5.12
2023-02-16T06:06:20.052Z,-5.12
2023-02-16T06:08:48.250Z,-4.92
2023-02-16T06:11:34.803Z,-4.53
2023-02-16T06:14:15.359Z,-4.48
2023-02-16T06:16:45.449Z,-4.44
2023-02-16T06:19:13.886Z,-4.70
2023-02-16T06:21:42.459Z,-4.35
2023-02-16T06:24:12.627Z,-4.18
2023-02-16T06:26:40.477Z,-3.94
2023-02-16T06:29:09.303Z,-3.86
2023-02-16T06:31:37.822Z,-3.70
2023-02-16T06:34:06.192Z,-3.78
2023-02-16T06:36:34.809Z,-3.79
2023-02-16T06:39:03.861Z,-3.61
2023-02-16T06:41:31.975Z,-3.49
2023-02-16T06:44:01.327Z,-3.61
2023-02-16T06:46:32.792Z,-3.51
2023-02-16T06:49:01.600Z,-3.94
2023-02-16T06:51:29.797Z,-3.77
2023-02-16T06:53:58.143Z,-3.38
2023-02-16T06:56:26.216Z,-3.51
2023-02-16T06:58:54.301Z,-3.40
2023-02-16T07:01:28.523Z,-3.22
2023-02-16T07:03:57.904Z,-3.27
2023-02-16T07:06:28.354Z,-3.70
2023-02-16T07:08:56.801Z,-3.50
2023-02-16T07:11:24.778Z,-3.15
2023-02-16T07:13:52.689Z,-2.90
2023-02-16T07:16:20.889Z,-2.56
2023-02-16T07:18:48.815Z,-2.33
2023-02-16T07:21:16.648Z,-2.92
2023-02-16T07:23:47.955Z,-3.18
2023-02-16T07:26:15.976Z,-3.16
2023-02-16T07:28:44.258Z,-2.91
2023-02-16T07:31:14.752Z,-2.69
2023-02-16T07:33:43.249Z,-2.75
2023-02-16T07:36:12.733Z,-2.86
2023-02-16T07:38:43.889Z,-3.34
2023-02-16T07:41:12.341Z,-3.04
2023-02-16T07:43:43.115Z,-3.01
2023-02-16T07:46:11.248Z,-3.13
2023-02-16T07:48:39.417Z,-3.11
2023-02-16T07:51:07.952Z,-3.21
2023-02-16T07:53:35.912Z,-2.71
2023-02-16T07:56:04.543Z,-3.08
2023-02-16T07:58:32.453Z,-3.10
2023-02-16T08:01:12.298Z,-2.41
2023-02-16T08:03:41.941Z,-1.94
2023-02-16T08:06:09.779Z,-1.42
2023-02-16T08:08:38.814Z,-1.09
2023-02-16T08:11:11.908Z,-1.39
2023-02-16T08:13:40.417Z,-2.19
2023-02-16T08:16:13.520Z,-3.48
2023-02-16T08:18:44.324Z,-3.45
2023-02-16T08:21:16.392Z,-2.79
2023-02-16T08:23:56.635Z,-2.47
2023-02-16T08:26:29.071Z,-2.30
2023-02-16T08:28:58.338Z,-1.98
2023-02-16T08:31:32.516Z,-1.93
2023-02-16T08:34:01.257Z,-1.63
2023-02-16T08:36:33.188Z,-1.19
2023-02-16T08:39:04.510Z,-1.03
2023-02-16T08:41:37.638Z,-0.87
2023-02-16T08:44:09.854Z,-0.75
2023-02-16T08:46:43.062Z,-1.12
2023-02-16T08:49:12.647Z,-0.82
2023-02-16T08:51:50.298Z,-0.04
2023-02-16T08:54:20.928Z,0.91
2023-02-16T08:56:49.978Z,1.40
2023-02-16T08:59:20.278Z,1.17
2023-02-16T09:01:49.382Z,1.06
2023-02-16T09:04:20.051Z,0.91
2023-02-16T09:06:52.654Z,0.26
2023-02-16T09:09:20.872Z,-0.76
2023-02-16T09:11:49.302Z,-1.44
2023-02-16T09:14:21.877Z,-2.57
2023-02-16T09:16:50.381Z,-2.81
2023-02-16T09:19:20.935Z,-2.32
2023-02-16T09:21:51.162Z,-1.74
2023-02-16T09:24:19.710Z,-1.61
2023-02-16T09:26:48.434Z,-1.36
2023-02-16T09:29:16.356Z,-1.00
2023-02-16T09:31:45.824Z,-0.63
2023-02-16T09:34:22.540Z,-0.30
2023-02-16T09:36:51.339Z,-0.29
2023-02-16T09:39:19.677Z,-0.39
2023-02-16T09:42:31.896Z,-1.82
2023-02-16T09:45:11.757Z,-2.77
2023-02-16T09:47:45.658Z,-3.13
2023-02-16T09:50:38.374Z,-3.71
2023-02-16T09:53:39.720Z,-3.66
2023-02-16T09:57:22.034Z,-4.08
2023-02-16T10:00:04.816Z,-4.17
2023-02-16T10:02:40.801Z,-3.94
2023-02-16T10:05:14.007Z,-2.49
2023-02-16T10:08:10.094Z,-1.56
2023-02-16T10:10:51.196Z,-1.98
2023-02-16T10:13:37.924Z,-2.04
2023-02-16T10:16:11.731Z,-2.19
2023-02-16T10:18:44.492Z,-1.29
2023-02-16T10:21:20.242Z,-1.22
2023-02-16T10:24:07.031Z,-1.66
2023-02-16T10:26:48.183Z,-1.62
2023-02-16T10:29:19.612Z,-1.39
2023-02-16T10:32:03.427Z,-1.09
2023-02-16T10:34:51.629Z,-1.29
2023-02-16T10:37:22.526Z,-0.62
2023-02-16T10:40:37.591Z,0.00
2023-02-16T10:43:25.524Z,0.41
2023-02-16T10:45:56.918Z,0.86
2023-02-16T10:48:24.888Z,0.63
2023-02-16T10:51:01.770Z,0.44
2023-02-16T10:53:32.584Z,0.17
2023-02-16T10:56:27.807Z,-0.44
2023-02-16T10:58:57.957Z,-0.68
2023-02-16T11:01:38.901Z,-0.51
2023-02-16T11:04:07.146Z,-0.55
2023-02-16T11:06:36.585Z,-0.69
2023-02-16T11:09:04.616Z,-1.42
2023-02-16T11:11:43.258Z,-1.56
2023-02-16T11:14:25.392Z,-2.91
2023-02-16T11:17:11.860Z,-2.06
2023-02-16T11:19:49.675Z,-2.13
2023-02-16T11:22:37.526Z,-2.10
2023-02-16T11:25:21.053Z,-2.33
2023-02-16T11:27:57.321Z,-2.95
2023-02-16T11:30:32.520Z,-2.50
2023-02-16T11:33:03.093Z,-1.73
2023-02-16T11:35:41.931Z,-1.08
2023-02-16T11:38:30.967Z,-1.63
2023-02-16T11:41:02.627Z,-2.12
2023-02-16T11:43:42.605Z,-2.04
2023-02-16T11:46:21.889Z,-1.43
2023-02-16T11:48:56.269Z,-1.97
2023-02-16T11:51:34.926Z,-1.99
2023-02-16T11:54:06.186Z,-1.79
2023-02-16T11:56:36.127Z,-2.86
2023-02-16T11:59:22.060Z,-2.93
2023-02-16T12:02:17.163Z,-2.20
2023-02-16T12:05:20.365Z,-1.66
2023-02-16T12:08:10.242Z,-1.78
2023-02-16T12:11:02.611Z,-1.87
2023-02-16T12:14:11.728Z,-2.67
2023-02-16T12:16:46.051Z,-3.42
2023-02-16T12:19:34.295Z,-3.35
2023-02-16T12:22:20.394Z,-2.87
2023-02-16T12:25:23.954Z,-2.70
2023-02-16T12:28:13.431Z,-2.25
2023-02-16T12:30:45.236Z,-2.13
2023-02-16T12:33:34.855Z,-2.24
2023-02-16T12:36:11.118Z,-2.24
2023-02-16T12:38:57.433Z,-3.21
2023-02-16T12:41:33.436Z,-3.35
2023-02-16T12:44:13.444Z,-4.03
2023-02-16T12:46:45.143Z,-3.50
2023-02-16T12:49:24.860Z,-4.05
2023-02-16T12:52:22.846Z,-3.95
2023-02-16T12:54:56.534Z,-4.17
2023-02-16T12:57:30.972Z,-3.41
2023-02-16T13:00:25.545Z,-3.71
2023-02-16T13:03:19.096Z,-3.96
2023-02-16T13:06:24.445Z,-3.42
2023-02-16T13:09:06.781Z,-3.66
2023-02-16T13:11:37.714Z,-3.93
2023-02-16T13:14:16.306Z,-3.90
2023-02-16T13:16:54.077Z,-4.15
2023-02-16T13:19:21.898Z,-4.09
2023-02-16T13:22:13.007Z,-3.78
2023-02-16T13:25:22.633Z,-4.12
2023-02-16T13:28:23.707Z,-4.27
2023-02-16T13:31:04.976Z,-4.03
2023-02-16T13:33:42.237Z,-4.01
2023-02-16T13:36:25.277Z,-4.32
2023-02-16T13:38:59.239Z,-4.59
2023-02-16T13:41:42.117Z,-3.92
2023-02-16T13:44:16.565Z,-2.06
2023-02-16T13:46:50.432Z,-3.38
2023-02-16T13:49:38.789Z,-3.59
2023-02-16T13:52:09.128Z,-3.02
2023-02-16T13:54:44.024Z,-2.90
2023-02-16T13:57:35.456Z,-3.02
2023-02-16T14:00:06.187Z,-3.70
2023-02-16T14:03:08.028Z,-3.66
2023-02-16T14:05:41.253Z,-3.61
2023-02-16T14:08:27.988Z,-3.47
2023-02-16T14:11:01.278Z,-3.27
2023-02-16T14:13:31.749Z,-4.66
2023-02-16T14:16:21.150Z,-2.58
2023-02-16T14:19:00.015Z,-1.96
2023-02-16T14:21:44.217Z,-1.86
2023-02-16T14:24:35.998Z,-1.71
2023-02-16T14:27:11.909Z,-1.78
2023-02-16T14:29:53.586Z,-1.27
2023-02-16T14:32:34.221Z,-1.40
2023-02-16T14:35:17.315Z,-1.33
2023-02-16T14:38:02.537Z,-1.97
2023-02-16T14:40:41.020Z,-2.16
2023-02-16T14:43:33.872Z,-2.06
2023-02-16T14:46:20.233Z,-1.80
2023-02-16T14:49:27.205Z,-1.56
2023-02-16T14:51:55.122Z,-1.65
2023-02-16T14:54:48.448Z,-1.87
2023-02-16T14:57:42.662Z,-1.77
2023-02-16T15:00:34.947Z,-2.16
2023-02-16T15:03:15.054Z,-2.04
2023-02-16T15:05:52.676Z,-2.33
2023-02-16T15:08:42.701Z,-2.48
2023-02-16T15:11:19.830Z,-1.84
2023-02-16T15:13:53.745Z,-1.63
2023-02-16T15:16:23.523Z,-1.84
2023-02-16T15:18:56.170Z,-2.22
2023-02-16T15:21:28.700Z,-1.76
2023-02-16T15:23:58.896Z,-2.01
2023-02-16T15:26:31.774Z,-1.90
2023-02-16T15:29:21.055Z,-2.22
2023-02-16T15:31:50.117Z,-2.00
2023-02-16T15:34:50.626Z,-2.30
2023-02-16T15:37:33.192Z,-2.01
2023-02-16T15:40:26.799Z,-2.14
2023-02-16T15:42:58.863Z,-1.64
2023-02-16T15:45:28.876Z,-1.62
2023-02-16T15:48:14.721Z,-2.00
2023-02-16T15:50:43.972Z,-2.69
2023-02-16T15:53:23.013Z,-2.88
2023-02-16T15:55:51.921Z,-2.40
2023-02-16T15:58:20.277Z,-2.11
2023-02-16T16:00:48.252Z,-1.99
2023-02-16T16:03:17.939Z,-1.79
2023-02-16T16:05:58.804Z,-2.24
2023-02-16T16:08:29.083Z,-3.58
2023-02-16T16:10:57.405Z,-3.83
2023-02-16T16:13:28.754Z,-2.36
2023-02-16T16:16:04.939Z,-3.08
2023-02-16T16:18:53.167Z,-2.11
2023-02-16T16:21:29.445Z,-2.82
2023-02-16T16:24:06.756Z,-2.99
2023-02-16T16:26:57.240Z,-2.76
2023-02-16T16:29:47.801Z,-2.88
2023-02-16T16:32:29.102Z,-2.44
2023-02-16T16:34:57.302Z,-2.11
2023-02-16T16:37:33.614Z,-2.04
2023-02-16T16:40:01.464Z,-1.97
2023-02-16T16:42:33.817Z,-2.07
2023-02-16T16:45:21.792Z,-1.91
2023-02-16T16:47:51.648Z,-1.88
2023-02-16T16:50:33.745Z,-1.85
2023-02-16T16:53:03.071Z,-2.17
2023-02-16T16:55:34.611Z,-2.13
2023-02-16T16:58:08.527Z,-2.39
2023-02-16T17:00:39.376Z,-2.91
2023-02-16T17:03:14.404Z,-2.93
2023-02-16T17:05:42.022Z,-2.65
2023-02-16T17:08:10.992Z,-2.32
2023-02-16T17:10:41.182Z,-2.54
2023-02-16T17:13:15.476Z,-2.17
2023-02-16T17:15:46.149Z,-2.65
2023-02-16T17:18:19.556Z,-2.07
2023-02-16T17:20:48.426Z,-2.65
2023-02-16T17:23:18.231Z,-2.26
2023-02-16T17:25:50.117Z,-3.27
2023-02-16T17:28:19.568Z,-3.07
2023-02-16T17:30:47.832Z,-2.43
2023-02-16T17:33:15.650Z,-3.93
2023-02-16T17:35:44.603Z,-4.37
2023-02-16T17:38:20.647Z,-3.36
2023-02-16T17:40:50.947Z,-3.63
2023-02-16T17:43:19.955Z,-3.39
2023-02-16T17:45:49.767Z,-2.72
2023-02-16T17:48:28.245Z,-3.07
2023-02-16T17:50:58.263Z,-2.41
2023-02-16T17:53:28.458Z,-2.13
2023-02-16T17:58:44.064Z,-3.33
2023-02-16T18:01:17.437Z,-3.46
2023-02-16T18:03:46.034Z,-3.43
2023-02-16T18:06:16.416Z,-3.34
2023-02-16T18:08:45.017Z,-4.08
2023-02-16T18:11:13.465Z,-5.30
2023-02-16T18:13:41.389Z,-5.78
2023-02-16T18:16:15.549Z,-6.25
2023-02-16T18:18:43.766Z,-4.89
2023-02-16T18:21:14.185Z,-4.12
2023-02-16T18:23:42.419Z,-4.02
2023-02-16T18:26:14.382Z,-4.29
2023-02-16T18:28:42.256Z,-3.47
2023-02-16T18:31:10.563Z,-3.21
2023-02-16T18:33:38.523Z,-3.10
2023-02-16T18:36:06.950Z,-3.07
2023-02-16T18:38:35.376Z,-3.97
2023-02-16T18:41:03.318Z,-3.41
2023-02-16T18:43:31.961Z,-3.13
2023-02-16T18:46:00.250Z,-2.97
2023-02-16T18:48:28.065Z,-2.70
2023-02-16T18:50:55.894Z,-2.75
2023-02-16T18:53:24.197Z,-2.70
2023-02-16T18:55:52.160Z,-2.62
2023-02-16T18:58:20.069Z,-2.57
2023-02-16T19:00:49.912Z,-2.70
2023-02-16T19:03:17.864Z,-2.62
2023-02-16T19:05:45.701Z,-2.81
2023-02-16T19:08:16.003Z,-2.58
2023-02-16T19:10:44.059Z,-2.70
2023-02-16T19:13:11.886Z,-2.60
2023-02-16T19:15:40.218Z,-2.59
2023-02-16T19:18:08.028Z,-2.49
2023-02-16T19:20:36.657Z,-2.51
2023-02-16T19:23:12.600Z,-2.60
2023-02-16T19:25:44.109Z,-2.74
2023-02-16T19:28:15.323Z,-2.99
2023-02-16T19:30:45.408Z,-3.16
2023-02-16T19:33:15.921Z,-3.35
2023-02-16T19:35:47.399Z,-3.64
2023-02-16T19:38:22.166Z,-3.82
2023-02-16T19:40:52.910Z,-3.80
2023-02-16T19:43:42.359Z,-3.79
2023-02-16T19:46:14.452Z,-4.11
2023-02-16T19:48:46.724Z,-4.82
2023-02-16T19:51:20.103Z,-5.01
2023-02-16T19:53:54.684Z,-5.33
2023-02-16T19:56:29.744Z,-5.63
2023-02-16T19:59:04.385Z,-6.74
2023-02-16T20:01:39.356Z,-7.96
2023-02-16T20:04:13.653Z,-8.44
2023-02-16T20:06:46.355Z,-8.90
2023-02-16T20:09:31.004Z,-9.22
2023-02-16T20:12:03.731Z,-9.48
2023-02-16T20:14:33.980Z,-9.57
2023-02-16T20:17:05.835Z,-9.81
2023-02-16T20:19:36.609Z,-9.80
2023-02-16T20:22:09.153Z,-9.59
2023-02-16T20:24:40.079Z,-9.51
2023-02-16T20:27:10.163Z,-9.42
2023-02-16T20:29:39.278Z,-9.37
2023-02-16T20:32:09.370Z,-9.32
2023-02-16T20:34:38.539Z,-9.25
2023-02-16T20:37:08.749Z,-9.17
2023-02-16T20:39:39.093Z,-9.13
2023-02-16T20:42:12.077Z,-9.11
2023-02-16T20:44:48.403Z,-9.09
2023-02-16T20:47:34.921Z,-9.06
2023-02-16T20:50:05.097Z,-8.92
2023-02-16T20:52:35.150Z,-8.85
2023-02-16T20:55:04.870Z,-8.79
2023-02-16T20:57:37.231Z,-8.76
2023-02-16T21:00:13.558Z,-8.76
2023-02-16T21:02:42.559Z,-8.80
2023-02-16T21:05:11.865Z,-8.81
2023-02-16T21:07:40.379Z,-8.74
2023-02-16T21:10:11.309Z,-8.82
2023-02-16T21:12:41.053Z,-8.66
2023-02-16T21:15:12.213Z,-8.61
2023-02-16T21:17:43.979Z,-8.56
2023-02-16T21:20:13.555Z,-8.62
2023-02-16T21:22:45.859Z,-8.45
2023-02-16T21:25:15.975Z,-8.55
2023-02-16T21:27:44.677Z,-8.59
2023-02-16T21:30:15.263Z,-8.62
2023-02-16T21:32:45.034Z,-8.66
2023-02-16T21:35:13.910Z,-8.67
2023-02-16T21:37:42.222Z,-8.68
2023-02-16T21:40:32.339Z,-8.78
2023-02-16T21:43:00.887Z,-8.62
2023-02-16T21:45:29.168Z,-8.60
2023-02-16T21:48:16.079Z,-8.64
2023-02-16T21:50:44.982Z,-8.56
2023-02-16T21:53:13.240Z,-8.61
2023-02-16T21:56:02.804Z,-8.49
2023-02-16T21:58:34.708Z,-8.48
2023-02-16T22:01:02.601Z,-8.53
2023-02-16T22:03:31.291Z,-8.53
2023-02-16T22:06:03.513Z,-8.53
2023-02-16T22:11:20.634Z,-8.40
2023-02-16T22:13:53.130Z,-8.47
2023-02-16T22:16:21.135Z,-8.29
2023-02-16T22:18:49.682Z,-8.24
2023-02-16T22:21:17.705Z,-8.18
2023-02-16T22:23:45.510Z,-8.18
2023-02-16T22:26:24.812Z,-8.13
2023-02-16T22:28:53.171Z,-8.11
2023-02-16T22:31:23.705Z,-8.03
2023-02-16T22:33:56.469Z,-8.00
2023-02-16T22:36:25.198Z,-8.00
2023-02-16T22:38:55.679Z,-7.97
2023-02-16T22:41:24.610Z,-8.03
2023-02-16T22:43:54.664Z,-8.02
2023-02-16T22:46:24.480Z,-7.95
2023-02-16T22:48:53.662Z,-7.96
2023-02-16T22:51:22.532Z,-7.91
2023-02-16T22:53:50.601Z,-7.88
2023-02-16T22:56:20.026Z,-7.86
2023-02-16T22:58:48.425Z,-7.81
2023-02-16T23:01:19.336Z,-7.80
2023-02-16T23:03:50.025Z,-7.74
2023-02-16T23:06:21.576Z,-7.72
2023-02-16T23:08:55.336Z,-7.71
2023-02-16T23:11:23.753Z,-7.70
2023-02-16T23:13:55.046Z,-7.65
2023-02-16T23:16:24.804Z,-7.66
2023-02-16T23:18:57.762Z,-7.76
2023-02-16T23:21:33.250Z,-7.73
2023-02-16T23:24:01.505Z,-7.69
2023-02-16T23:26:31.490Z,-7.62
2023-02-16T23:29:03.376Z,-7.60
2023-02-16T23:31:36.290Z,-7.58
2023-02-16T23:34:05.290Z,-7.56
2023-02-16T23:36:35.779Z,-7.60
2023-02-16T23:39:06.972Z,-7.61
2023-02-16T23:41:35.362Z,-7.58
2023-02-16T23:44:04.077Z,-7.57
2023-02-16T23:46:35.017Z,-7.49
2023-02-16T23:49:03.460Z,-7.49
2023-02-16T23:51:31.573Z,-7.66
2023-02-16T23:53:59.448Z,-7.77
2023-02-16T23:56:29.125Z,-7.61
2023-02-16T23:58:59.076Z,-7.60
